Time;durP1;ratioP1;P1;durP2;ratioP2;P2;SDS_P1;SDS_P2;PMS_P1;PMS_P2;Temp;Humidity;BMP_temperature;BMP_pressure;BME280_temperature;BME280_humidity;BME280_pressure;Samples;Min_cycle;Max_cycle;Signal;HPM_P1;HPM_P2
2021/12/05 00:22:47;;;;;;;13.45;9.18;;;;;;;;;;143758;606;46020;-62
2021/12/05 00:25:27;;;;;;;12.82;9.27;;;;;;;;;;143760;662;45021;-62
2021/12/05 00:28:19;;;;;;;12.85;9.70;;;;;;;;;;143756;566;46022;-63
2021/12/05 00:31:12;;;;;;;13.98;9.15;;;;;;;;;;143758;609;45920;-62
2021/12/05 00:46:01;;;;;;;13.93;9.10;;;;;;;;;;143756;613;46012;-62
2021/12/05 00:57:39;;;;;;;15.95;8.48;;;;;;;;;;143756;585;46020;-62
2021/12/05 01:09:18;;;;;;;12.25;7.68;;;;;;;;;;143724;592;46021;-61
2021/12/05 01:17:26;;;;;;;9.88;7.30;;;;;;;;;;143728;659;46031;-61
2021/12/05 01:19:54;;;;;;;11.45;7.00;;;;;;;;;;143731;615;45020;-61
2021/12/05 01:22:23;;;;;;;14.20;8.63;;;;;;;;;;143732;625;46010;-62
2021/12/05 01:25:13;;;;;;;9.45;7.45;;;;;;;;;;143727;572;47020;-62
2021/12/05 01:27:49;;;;;;;9.35;6.87;;;;;;;;;;143724;589;47012;-62
2021/12/05 01:30:31;;;;;;;11.15;7.45;;;;;;;;;;143729;605;45910;-62
2021/12/05 01:33:23;;;;;;;13.30;7.68;;;;;;;;;;143728;641;46010;-62
2021/12/05 01:36:14;;;;;;;12.10;7.50;;;;;;;;;;143725;566;47021;-62
2021/12/05 01:42:04;;;;;;;9.25;7.07;;;;;;;;;;143728;635;46020;-62
2021/12/05 01:58:50;;;;;;;11.52;7.10;;;;;;;;;;143729;621;45905;-61
2021/12/05 02:15:56;;;;;;;15.87;10.77;;;;;;;;;;143728;609;46021;-60
2021/12/05 02:44:01;;;;;;;16.10;12.33;;;;;;;;;;143725;663;47012;-60
2021/12/05 02:46:28;;;;;;;25.58;17.17;;;;;;;;;;143725;620;47012;-61
2021/12/05 02:49:00;;;;;;;28.48;21.27;;;;;;;;;;143726;566;45909;-62
2021/12/05 02:51:28;;;;;;;24.27;18.45;;;;;;;;;;143730;645;46011;-62
2021/12/05 02:54:09;;;;;;;25.17;17.37;;;;;;;;;;143724;616;47023;-62
2021/12/05 02:56:42;;;;;;;27.25;18.70;;;;;;;;;;143726;623;46012;-60
2021/12/05 03:02:16;;;;;;;20.33;15.60;;;;;;;;;;143728;564;47012;-62
2021/12/05 03:04:47;;;;;;;23.58;16.92;;;;;;;;;;143725;649;47022;-62
2021/12/05 03:07:25;;;;;;;25.27;18.27;;;;;;;;;;143725;659;47012;-62
2021/12/05 03:09:53;;;;;;;27.60;20.40;;;;;;;;;;143727;642;46020;-61
2021/12/05 03:12:20;;;;;;;22.25;17.87;;;;;;;;;;143727;632;47010;-60
2021/12/05 03:14:49;;;;;;;23.60;19.50;;;;;;;;;;143725;571;47022;-61
2021/12/05 03:17:17;;;;;;;25.75;18.50;;;;;;;;;;143725;604;47012;-61
2021/12/05 03:19:44;;;;;;;31.90;25.42;;;;;;;;;;143729;632;45020;-62
2021/12/05 03:22:11;;;;;;;29.12;21.87;;;;;;;;;;143730;579;46010;-62
2021/12/05 03:24:38;;;;;;;32.38;25.23;;;;;;;;;;143725;630;47022;-60
2021/12/05 03:27:05;;;;;;;28.23;23.00;;;;;;;;;;143724;585;47012;-62
2021/12/05 03:29:32;;;;;;;28.80;23.77;;;;;;;;;;143725;582;46021;-62
2021/12/05 03:31:59;;;;;;;31.27;23.38;;;;;;;;;;143728;565;46020;-60
2021/12/05 03:34:27;;;;;;;27.95;20.70;;;;;;;;;;143724;665;47022;-62
2021/12/05 03:36:57;;;;;;;21.05;16.35;;;;;;;;;;143724;586;47013;-61
2021/12/05 03:39:26;;;;;;;25.12;18.80;;;;;;;;;;143728;574;45020;-60
2021/12/05 03:41:55;;;;;;;23.95;17.62;;;;;;;;;;143730;647;46010;-62
2021/12/05 03:44:26;;;;;;;22.20;15.55;;;;;;;;;;143726;602;47020;-62
2021/12/05 03:46:56;;;;;;;18.42;15.05;;;;;;;;;;143725;581;47012;-62
2021/12/05 03:49:24;;;;;;;22.05;15.00;;;;;;;;;;143726;655;45912;-62
2021/12/05 03:51:59;;;;;;;21.67;14.45;;;;;;;;;;143730;639;46021;-62
2021/12/05 03:54:27;;;;;;;18.55;13.45;;;;;;;;;;143726;618;47020;-60
2021/12/05 03:56:54;;;;;;;19.17;13.20;;;;;;;;;;143726;600;46030;-62
2021/12/05 03:59:22;;;;;;;21.15;13.93;;;;;;;;;;143726;570;46021;-62
2021/12/05 04:01:49;;;;;;;19.25;14.30;;;;;;;;;;143730;573;46020;-62
2021/12/05 04:04:17;;;;;;;19.00;13.70;;;;;;;;;;143724;641;47022;-60
2021/12/05 04:06:46;;;;;;;24.08;14.52;;;;;;;;;;143726;614;46012;-62
2021/12/05 04:09:16;;;;;;;16.20;14.25;;;;;;;;;;143728;644;46020;-61
2021/12/05 04:11:54;;;;;;;35.60;15.68;;;;;;;;;;143729;569;46020;-61
2021/12/05 04:14:21;;;;;;;18.58;14.18;;;;;;;;;;143724;591;47021;-62
2021/12/05 04:16:51;;;;;;;18.55;13.32;;;;;;;;;;143725;569;47012;-62
2021/12/05 04:19:18;;;;;;;18.05;13.07;;;;;;;;;;143728;596;45020;-62
2021/12/05 04:21:45;;;;;;;16.27;13.57;;;;;;;;;;143729;577;46011;-60
2021/12/05 04:24:12;;;;;;;23.40;18.25;;;;;;;;;;143724;569;47020;-62
2021/12/05 04:26:41;;;;;;;22.92;19.02;;;;;;;;;;143725;644;47012;-62
2021/12/05 04:29:10;;;;;;;21.05;17.58;;;;;;;;;;143726;603;45021;-62
2021/12/05 04:31:39;;;;;;;23.00;18.08;;;;;;;;;;143730;607;46026;-61
2021/12/05 04:34:07;;;;;;;27.50;20.65;;;;;;;;;;143725;579;47020;-60
2021/12/05 04:36:34;;;;;;;22.10;17.62;;;;;;;;;;143727;571;46033;-62
2021/12/05 04:39:01;;;;;;;27.00;21.45;;;;;;;;;;143727;620;45020;-60
2021/12/05 04:41:28;;;;;;;39.78;33.33;;;;;;;;;;143728;583;47010;-62
2021/12/05 04:43:57;;;;;;;34.63;28.65;;;;;;;;;;143725;589;47021;-61
2021/12/05 04:46:25;;;;;;;39.08;29.30;;;;;;;;;;143727;570;46032;-62
2021/12/05 04:48:54;;;;;;;21.40;15.80;;;;;;;;;;143725;589;46018;-61
2021/12/05 04:51:25;;;;;;;19.02;13.93;;;;;;;;;;143729;580;46018;-62
2021/12/05 04:53:53;;;;;;;19.30;13.50;;;;;;;;;;143724;643;47020;-62
2021/12/05 04:56:21;;;;;;;17.83;12.02;;;;;;;;;;143725;640;47012;-61
2021/12/05 04:58:48;;;;;;;17.83;11.75;;;;;;;;;;143729;570;45021;-60
2021/12/05 05:01:15;;;;;;;16.58;11.90;;;;;;;;;;143729;590;46010;-61
2021/12/05 05:03:42;;;;;;;15.00;11.93;;;;;;;;;;143724;595;47020;-61
2021/12/05 05:06:14;;;;;;;19.67;12.63;;;;;;;;;;143724;588;47013;-62
2021/12/05 05:08:43;;;;;;;16.50;12.65;;;;;;;;;;143728;604;45023;-62
2021/12/05 05:11:13;;;;;;;17.65;11.40;;;;;;;;;;143730;584;46010;-61
2021/12/05 05:13:40;;;;;;;14.50;11.10;;;;;;;;;;143725;595;47021;-60
2021/12/05 05:16:08;;;;;;;17.58;12.52;;;;;;;;;;143723;616;47012;-62
2021/12/05 05:18:44;;;;;;;21.77;12.55;;;;;;;;;;143724;662;46020;-62
2021/12/05 05:30:29;;;;;;;16.48;11.02;;;;;;;;;;143728;628;46021;-62
2021/12/05 05:44:54;;;;;;;24.58;17.80;;;;;;;;;;143727;564;47012;-61
2021/12/05 05:47:37;;;;;;;22.02;15.40;;;;;;;;;;143726;577;47020;-62
2021/12/05 05:50:05;;;;;;;19.80;14.25;;;;;;;;;;143725;581;47013;-60
2021/12/05 05:52:33;;;;;;;23.05;14.18;;;;;;;;;;143729;590;46020;-61
2021/12/05 05:55:01;;;;;;;26.67;18.95;;;;;;;;;;143727;582;47010;-62
2021/12/05 05:57:45;;;;;;;23.67;19.90;;;;;;;;;;143727;566;47021;-62
2021/12/05 06:00:17;;;;;;;24.08;19.67;;;;;;;;;;143726;659;47012;-62
2021/12/05 06:05:32;;;;;;;27.48;20.73;;;;;;;;;;143754;566;46012;-62
2021/12/05 06:07:59;;;;;;;18.62;14.93;;;;;;;;;;143755;608;46020;-62
2021/12/05 06:10:28;;;;;;;19.00;16.27;;;;;;;;;;143754;645;45917;-61
2021/12/05 06:12:55;;;;;;;25.60;17.50;;;;;;;;;;143746;608;46012;-61
2021/12/05 06:15:25;;;;;;;19.80;16.30;;;;;;;;;;143757;586;46010;-62
2021/12/05 06:17:54;;;;;;;25.88;16.80;;;;;;;;;;143753;565;46020;-60
2021/12/05 06:20:26;;;;;;;19.05;14.73;;;;;;;;;;143753;570;46012;-62
2021/12/05 06:22:54;;;;;;;21.20;14.05;;;;;;;;;;143752;631;45022;-61
2021/12/05 06:25:24;;;;;;;21.23;14.20;;;;;;;;;;143756;589;45018;-61
2021/12/05 06:27:58;;;;;;;20.52;13.35;;;;;;;;;;143754;617;46021;-61
2021/12/05 06:41:57;;;;;;;17.90;12.82;;;;;;;;;;143757;613;45010;-61
2021/12/05 06:47:11;;;;;;;15.98;12.60;;;;;;;;;;143759;585;45012;-62
2021/12/05 06:49:39;;;;;;;18.50;12.57;;;;;;;;;;143753;593;46022;-61
2021/12/05 06:52:07;;;;;;;15.48;11.93;;;;;;;;;;143750;638;46012;-63
2021/12/05 06:54:37;;;;;;;17.42;11.98;;;;;;;;;;143753;660;45020;-63
2021/12/05 06:57:06;;;;;;;16.40;11.82;;;;;;;;;;143757;600;45020;-63
2021/12/05 06:59:33;;;;;;;17.10;12.73;;;;;;;;;;143753;644;46022;-63
2021/12/05 07:02:00;;;;;;;18.58;14.38;;;;;;;;;;143755;587;45920;-63
2021/12/05 07:07:20;;;;;;;25.88;16.58;;;;;;;;;;143729;643;46012;-62
2021/12/05 07:09:47;;;;;;;16.27;13.88;;;;;;;;;;143726;569;47020;-64
2021/12/05 07:21:03;;;;;;;21.30;12.50;;;;;;;;;;143728;571;46013;-63
2021/12/05 07:26:29;;;;;;;20.55;14.00;;;;;;;;;;143726;654;47020;-64
2021/12/05 07:42:41;;;;;;;14.10;10.95;;;;;;;;;;143726;578;47021;-63
2021/12/05 07:45:16;;;;;;;18.42;14.45;;;;;;;;;;143726;564;47012;-63
2021/12/05 07:47:49;;;;;;;17.27;13.15;;;;;;;;;;143728;634;45020;-62
2021/12/05 07:50:19;;;;;;;16.92;12.32;;;;;;;;;;143731;614;46012;-62
2021/12/05 07:52:51;;;;;;;20.10;17.02;;;;;;;;;;143727;744;47022;-63
2021/12/05 07:55:27;;;;;;;23.73;15.65;;;;;;;;;;143728;714;47012;-63
2021/12/05 08:01:22;;;;;;;16.40;11.32;;;;;;;;;;143728;573;47012;-63
2021/12/05 08:14:57;;;;;;;19.50;16.27;;;;;;;;;;143729;600;45020;-63
2021/12/05 08:17:24;;;;;;;25.05;14.80;;;;;;;;;;143716;611;47012;-63
2021/12/05 08:19:51;;;;;;;22.25;17.50;;;;;;;;;;143727;581;45021;-63
2021/12/05 08:22:19;;;;;;;19.67;14.13;;;;;;;;;;143729;610;46020;-64
2021/12/05 08:24:48;;;;;;;19.00;14.77;;;;;;;;;;143727;597;47020;-63
2021/12/05 08:27:15;;;;;;;29.35;18.80;;;;;;;;;;143727;581;47012;-64
2021/12/05 08:29:48;;;;;;;25.37;17.05;;;;;;;;;;143728;586;46021;-62
2021/12/05 08:35:35;;;;;;;19.52;17.08;;;;;;;;;;143728;632;47014;-63
2021/12/05 08:41:25;;;;;;;26.42;18.10;;;;;;;;;;143723;591;46021;-62
2021/12/05 08:44:01;;;;;;;29.48;22.65;;;;;;;;;;143728;571;47012;-62
2021/12/05 09:08:35;;;;;;;25.25;19.52;;;;;;;;;;143727;575;47022;-62
2021/12/05 09:19:47;;;;;;;23.08;14.30;;;;;;;;;;143729;564;45022;-63
2021/12/05 09:20:36;;;;;;;29.08;17.80;;;;;;;;;;143727;603;47020;-63
2021/12/05 09:23:08;;;;;;;25.98;16.35;;;;;;;;;;143729;598;46010;-63
2021/12/05 10:02:10;;;;;;;16.10;10.75;;;;;;;;;;143735;839;46010;-62
2021/12/05 10:13:13;;;;;;;13.43;8.05;;;;;;;;;;143732;859;46018;-62
2021/12/05 10:27:25;;;;;;;14.60;9.45;;;;;;;;;;143726;574;47021;-60
2021/12/05 10:36:11;;;;;;;13.57;8.90;;;;;;;;;;143730;622;47012;-61
2021/12/05 10:38:44;;;;;;;15.23;9.95;;;;;;;;;;143729;615;46012;-60
2021/12/05 10:41:48;;;;;;;12.30;8.82;;;;;;;;;;143726;625;47031;-60
2021/12/05 10:44:16;;;;;;;15.10;10.90;;;;;;;;;;143729;587;46020;-59
2021/12/05 10:46:49;;;;;;;12.43;9.40;;;;;;;;;;143730;586;46020;-60
2021/12/05 10:49:17;;;;;;;15.33;11.00;;;;;;;;;;143728;636;47020;-60
2021/12/05 10:51:55;;;;;;;13.32;8.43;;;;;;;;;;143726;604;47022;-59
2021/12/05 10:54:25;;;;;;;11.85;7.97;;;;;;;;;;143731;579;45909;-60
2021/12/05 10:56:55;;;;;;;13.43;8.85;;;;;;;;;;143731;570;46021;-58
2021/12/05 10:59:41;;;;;;;14.18;9.38;;;;;;;;;;143726;611;47022;-59
2021/12/05 11:02:14;;;;;;;16.00;9.85;;;;;;;;;;143728;564;46010;-59
2021/12/05 11:04:44;;;;;;;11.00;8.27;;;;;;;;;;143730;564;45021;-59
2021/12/05 11:07:19;;;;;;;18.33;9.05;;;;;;;;;;143728;604;47010;-59
2021/12/05 11:09:57;;;;;;;16.83;8.93;;;;;;;;;;143727;591;47021;-60
2021/12/05 11:12:28;;;;;;;12.48;8.18;;;;;;;;;;143725;575;47010;-58
2021/12/05 11:14:58;;;;;;;12.23;8.88;;;;;;;;;;143731;576;46020;-60
2021/12/05 11:17:30;;;;;;;11.55;7.53;;;;;;;;;;143732;632;46020;-60
2021/12/05 11:20:17;;;;;;;17.08;8.23;;;;;;;;;;143726;564;47020;-58
2021/12/05 11:22:47;;;;;;;16.62;8.38;;;;;;;;;;143725;619;47010;-60
2021/12/05 11:25:21;;;;;;;15.35;8.45;;;;;;;;;;143729;564;47019;-60
2021/12/05 11:27:56;;;;;;;12.97;7.90;;;;;;;;;;143732;570;46022;-58
2021/12/05 11:30:34;;;;;;;11.85;7.47;;;;;;;;;;143726;563;47020;-60
2021/12/05 11:33:19;;;;;;;11.55;7.07;;;;;;;;;;143728;567;47010;-58
2021/12/05 11:35:58;;;;;;;11.73;7.90;;;;;;;;;;143728;619;45910;-60
2021/12/05 11:38:28;;;;;;;13.05;7.90;;;;;;;;;;143732;564;46022;-59
2021/12/05 11:41:26;;;;;;;14.45;7.53;;;;;;;;;;143728;607;47018;-59
2021/12/05 11:43:59;;;;;;;15.32;8.55;;;;;;;;;;143728;629;46010;-57
2021/12/05 11:46:32;;;;;;;14.27;7.80;;;;;;;;;;143729;578;45909;-59
2021/12/05 11:49:06;;;;;;;10.32;7.90;;;;;;;;;;143731;583;46023;-60
2021/12/05 11:52:08;;;;;;;12.40;7.62;;;;;;;;;;143727;685;47027;-59
2021/12/05 11:54:45;;;;;;;13.57;8.00;;;;;;;;;;143728;603;46027;-58
2021/12/05 11:57:15;;;;;;;15.90;9.07;;;;;;;;;;143728;569;46018;-59
2021/12/05 11:59:49;;;;;;;15.65;9.32;;;;;;;;;;143730;873;46022;-59
2021/12/05 12:02:25;;;;;;;12.60;8.40;;;;;;;;;;143726;719;47020;-59
2021/12/05 12:05:08;;;;;;;14.13;9.02;;;;;;;;;;143725;676;47010;-59
2021/12/05 12:07:57;;;;;;;13.35;9.95;;;;;;;;;;143728;790;46018;-59
2021/12/05 12:10:45;;;;;;;10.50;8.02;;;;;;;;;;143730;737;46023;-59
2021/12/05 12:13:22;;;;;;;18.90;9.98;;;;;;;;;;143726;644;47020;-59
2021/12/05 12:15:58;;;;;;;11.77;8.18;;;;;;;;;;143729;630;46019;-59
2021/12/05 12:18:31;;;;;;;15.32;9.70;;;;;;;;;;143729;581;45909;-57
2021/12/05 12:21:01;;;;;;;14.57;9.73;;;;;;;;;;143731;587;46022;-59
2021/12/05 12:23:29;;;;;;;18.02;10.02;;;;;;;;;;143726;583;47020;-60
2021/12/05 12:25:59;;;;;;;12.27;8.52;;;;;;;;;;143727;626;47010;-59
2021/12/05 12:28:27;;;;;;;13.27;8.63;;;;;;;;;;143730;637;45018;-59
2021/12/05 12:31:02;;;;;;;15.48;9.32;;;;;;;;;;143732;603;46011;-58
2021/12/05 12:33:33;;;;;;;12.75;9.63;;;;;;;;;;143727;607;47018;-59
2021/12/05 12:36:02;;;;;;;14.40;9.32;;;;;;;;;;143726;593;47025;-59
2021/12/05 12:38:39;;;;;;;13.20;8.90;;;;;;;;;;143728;583;46018;-59
2021/12/05 12:41:16;;;;;;;10.43;7.80;;;;;;;;;;143732;586;46023;-59
2021/12/05 12:43:58;;;;;;;15.93;8.40;;;;;;;;;;143727;618;47018;-59
2021/12/05 12:46:40;;;;;;;10.45;7.62;;;;;;;;;;143726;614;47010;-59
2021/12/05 12:49:36;;;;;;;12.95;7.78;;;;;;;;;;143730;587;45019;-58
2021/12/05 12:52:18;;;;;;;15.73;11.07;;;;;;;;;;143729;605;47010;-58
2021/12/05 12:54:55;;;;;;;16.10;8.35;;;;;;;;;;143727;586;47019;-59
2021/12/05 12:57:31;;;;;;;14.00;10.05;;;;;;;;;;143726;571;47010;-59
2021/12/05 13:00:13;;;;;;;11.12;8.68;;;;;;;;;;143728;585;46018;-59
2021/12/05 13:07:17;;;;;;;15.80;8.73;;;;;;;;;;143757;579;44907;-59
2021/12/05 13:11:55;;;;;;;13.05;9.38;;;;;;;;;;143759;564;45018;-59
2021/12/05 13:14:23;;;;;;;11.90;8.38;;;;;;;;;;143760;634;45010;-59
2021/12/05 13:16:50;;;;;;;11.88;7.35;;;;;;;;;;143756;610;46019;-59
2021/12/05 13:19:22;;;;;;;12.23;8.95;;;;;;;;;;143755;580;46010;-60
2021/12/05 13:21:52;;;;;;;13.18;8.63;;;;;;;;;;143756;593;45908;-59
2021/12/05 13:24:30;;;;;;;10.80;8.13;;;;;;;;;;143759;573;45022;-58
2021/12/05 13:27:04;;;;;;;11.60;8.65;;;;;;;;;;143756;564;46020;-60
2021/12/05 13:29:49;;;;;;;12.68;8.35;;;;;;;;;;143756;566;46010;-59
2021/12/05 13:32:25;;;;;;;14.18;9.52;;;;;;;;;;143756;574;44019;-60
2021/12/05 13:34:55;;;;;;;13.73;8.13;;;;;;;;;;143760;597;45022;-60
2021/12/05 13:37:29;;;;;;;13.85;8.23;;;;;;;;;;143759;591;45018;-59
2021/12/05 13:40:26;;;;;;;14.07;8.13;;;;;;;;;;143756;631;46011;-58
2021/12/05 13:43:01;;;;;;;13.68;7.70;;;;;;;;;;143760;609;44018;-59
2021/12/05 13:45:41;;;;;;;11.50;8.13;;;;;;;;;;143761;717;45022;-59
2021/12/05 13:48:20;;;;;;;15.40;9.95;;;;;;;;;;143756;596;46021;-59
2021/12/05 13:50:51;;;;;;;11.15;8.45;;;;;;;;;;143756;571;45920;-59
2021/12/05 13:53:22;;;;;;;17.40;9.07;;;;;;;;;;143758;566;44907;-59
2021/12/05 13:56:06;;;;;;;12.82;8.30;;;;;;;;;;143758;567;45023;-58
2021/12/05 13:58:42;;;;;;;11.07;8.52;;;;;;;;;;143755;585;46020;-59
2021/12/05 14:01:44;;;;;;;23.62;18.60;;;;;;;;;;143755;573;46010;-58
2021/12/05 14:04:38;;;;;;;22.60;15.40;;;;;;;;;;143740;597;45037;-60
2021/12/05 14:07:07;;;;;;;21.83;13.77;;;;;;;;;;143730;589;46010;-58
2021/12/05 14:09:47;;;;;;;15.35;11.07;;;;;;;;;;143724;591;47023;-59
2021/12/05 14:12:19;;;;;;;16.40;11.63;;;;;;;;;;143726;574;46010;-59
2021/12/05 14:14:59;;;;;;;13.55;9.55;;;;;;;;;;143729;590;45020;-58
2021/12/05 14:17:33;;;;;;;14.52;10.32;;;;;;;;;;143729;564;46021;-59
2021/12/05 14:20:25;;;;;;;13.98;10.18;;;;;;;;;;143725;570;47020;-58
2021/12/05 14:22:54;;;;;;;17.45;10.38;;;;;;;;;;143724;578;47010;-59
2021/12/05 14:25:24;;;;;;;16.73;11.85;;;;;;;;;;143726;611;45909;-59
2021/12/05 14:27:59;;;;;;;26.50;20.58;;;;;;;;;;143728;748;46020;-60
2021/12/05 14:30:27;;;;;;;;;;;;;;;;;;143730;981;47021;-58
2021/12/05 14:32:58;;;;;;;18.17;12.55;;;;;;;;;;143734;593;46010;-59
2021/12/05 14:35:35;;;;;;;14.90;11.32;;;;;;;;;;143729;613;45020;-57
2021/12/05 14:38:06;;;;;;;16.35;11.12;;;;;;;;;;143729;570;46013;-58
2021/12/05 14:40:34;;;;;;;16.80;12.45;;;;;;;;;;143725;625;47023;-59
2021/12/05 14:43:04;;;;;;;16.58;11.23;;;;;;;;;;143726;582;47010;-58
2021/12/05 14:45:36;;;;;;;13.68;9.40;;;;;;;;;;143726;577;46020;-58
2021/12/05 14:48:08;;;;;;;16.42;12.15;;;;;;;;;;143730;640;46021;-59
2021/12/05 14:50:38;;;;;;;16.37;11.25;;;;;;;;;;143726;581;47020;-57
2021/12/05 14:53:07;;;;;;;17.80;11.88;;;;;;;;;;143724;581;47010;-59
2021/12/05 14:55:35;;;;;;;19.35;12.13;;;;;;;;;;143727;587;45909;-58
2021/12/05 14:58:15;;;;;;;17.30;11.73;;;;;;;;;;143728;575;46020;-59
2021/12/05 15:00:47;;;;;;;22.27;11.82;;;;;;;;;;143725;594;47021;-58
2021/12/05 15:03:21;;;;;;;18.10;12.40;;;;;;;;;;143724;583;47010;-58
2021/12/05 15:05:54;;;;;;;22.83;13.50;;;;;;;;;;143726;581;45909;-58
2021/12/05 15:08:24;;;;;;;24.58;17.67;;;;;;;;;;143729;641;46020;-59
2021/12/05 15:10:57;;;;;;;21.17;14.45;;;;;;;;;;143725;604;47020;-58
2021/12/05 15:13:24;;;;;;;23.65;17.08;;;;;;;;;;143727;561;46029;-57
2021/12/05 15:15:52;;;;;;;26.45;16.02;;;;;;;;;;143728;564;45910;-58
2021/12/05 15:18:24;;;;;;;28.48;13.95;;;;;;;;;;143730;592;46020;-57
2021/12/05 15:20:51;;;;;;;43.67;24.70;;;;;;;;;;143724;606;47020;-58
2021/12/05 15:23:18;;;;;;;42.72;30.37;;;;;;;;;;143726;623;47010;-58
2021/12/05 15:25:45;;;;;;;25.75;18.27;;;;;;;;;;143728;646;46014;-58
2021/12/05 15:28:15;;;;;;;30.42;19.02;;;;;;;;;;143730;597;46012;-58
2021/12/05 15:30:48;;;;;;;32.03;18.92;;;;;;;;;;143724;569;47022;-59
2021/12/05 15:33:21;;;;;;;27.23;17.35;;;;;;;;;;143726;567;46010;-57
2021/12/05 15:35:51;;;;;;;23.90;15.32;;;;;;;;;;143728;590;45020;-58
2021/12/05 15:38:24;;;;;;;14.50;12.15;;;;;;;;;;143729;602;46020;-58
2021/12/05 15:40:59;;;;;;;18.23;13.93;;;;;;;;;;143725;663;47020;-59
2021/12/05 15:43:28;;;;;;;19.55;13.15;;;;;;;;;;143725;589;47010;-57
2021/12/05 15:45:57;;;;;;;21.35;12.82;;;;;;;;;;143727;642;45021;-58
2021/12/05 15:48:29;;;;;;;23.17;13.13;;;;;;;;;;143729;628;46012;-58
2021/12/05 15:50:58;;;;;;;23.50;14.48;;;;;;;;;;143726;637;47020;-58
2021/12/05 15:53:26;;;;;;;19.55;13.93;;;;;;;;;;143724;626;47010;-57
2021/12/05 15:55:59;;;;;;;25.00;15.15;;;;;;;;;;143728;678;45020;-59
2021/12/05 15:58:32;;;;;;;24.20;17.25;;;;;;;;;;143727;654;46027;-57
2021/12/05 16:01:03;;;;;;;30.70;19.10;;;;;;;;;;143725;596;47021;-57
2021/12/05 16:03:45;;;;;;;29.05;17.65;;;;;;;;;;143723;621;47010;-58
2021/12/05 16:06:14;;;;;;;28.00;17.25;;;;;;;;;;143728;592;45910;-58
2021/12/05 16:08:43;;;;;;;31.30;17.33;;;;;;;;;;143729;600;46021;-58
2021/12/05 16:11:16;;;;;;;24.12;16.42;;;;;;;;;;143724;581;47022;-58
2021/12/05 16:13:45;;;;;;;28.33;21.33;;;;;;;;;;143725;653;47010;-58
2021/12/05 16:16:27;;;;;;;36.60;22.77;;;;;;;;;;143727;585;45021;-59
2021/12/05 16:18:57;;;;;;;30.08;20.80;;;;;;;;;;143730;596;46020;-57
2021/12/05 16:21:36;;;;;;;31.33;21.73;;;;;;;;;;143726;570;47021;-57
2021/12/05 16:24:13;;;;;;;44.90;32.30;;;;;;;;;;143724;569;47010;-58
2021/12/05 16:26:41;;;;;;;50.85;29.90;;;;;;;;;;143726;597;46020;-58
2021/12/05 16:29:13;;;;;;;41.15;28.75;;;;;;;;;;143729;596;46013;-58
2021/12/05 16:31:52;;;;;;;32.97;23.67;;;;;;;;;;143725;604;47020;-58
2021/12/05 16:34:25;;;;;;;35.75;21.67;;;;;;;;;;143727;610;46028;-57
2021/12/05 16:36:58;;;;;;;37.13;25.10;;;;;;;;;;143727;570;47019;-57
2021/12/05 16:39:47;;;;;;;51.97;29.83;;;;;;;;;;143729;566;46021;-57
2021/12/05 16:42:20;;;;;;;46.40;26.90;;;;;;;;;;143723;607;47020;-59
2021/12/05 16:44:53;;;;;;;44.80;28.33;;;;;;;;;;143722;555;47010;-59
2021/12/05 16:47:27;;;;;;;40.38;28.15;;;;;;;;;;143729;619;45020;-59
2021/12/05 16:49:56;;;;;;;40.75;26.85;;;;;;;;;;143728;588;47020;-60
2021/12/05 16:52:31;;;;;;;61.58;35.25;;;;;;;;;;143724;671;47021;-59
2021/12/05 16:55:04;;;;;;;40.38;27.85;;;;;;;;;;143726;604;47010;-58
2021/12/05 16:57:43;;;;;;;46.72;29.65;;;;;;;;;;143725;665;45910;-59
2021/12/05 17:00:20;;;;;;;52.30;33.00;;;;;;;;;;143728;581;46020;-58
2021/12/05 17:02:52;;;;;;;53.47;34.20;;;;;;;;;;143724;627;47023;-57
2021/12/05 17:05:36;;;;;;;42.70;25.33;;;;;;;;;;143755;565;45919;-57
2021/12/05 17:08:21;;;;;;;51.10;32.47;;;;;;;;;;143754;590;45911;-58
2021/12/05 17:11:10;;;;;;;66.68;39.35;;;;;;;;;;143757;575;45020;-58
2021/12/05 17:13:58;;;;;;;45.05;28.85;;;;;;;;;;143753;617;46021;-59
2021/12/05 17:16:29;;;;;;;60.53;34.20;;;;;;;;;;143754;575;45919;-59
2021/12/05 17:19:06;;;;;;;34.75;23.95;;;;;;;;;;143753;652;46032;-59
2021/12/05 17:21:47;;;;;;;36.55;24.12;;;;;;;;;;143758;565;45020;-59
2021/12/05 17:24:32;;;;;;;59.97;34.67;;;;;;;;;;143756;565;45023;-58
2021/12/05 17:27:07;;;;;;;62.78;33.53;;;;;;;;;;143754;589;45917;-59
2021/12/05 17:29:43;;;;;;;64.53;34.47;;;;;;;;;;143755;577;45014;-59
2021/12/05 17:32:16;;;;;;;49.30;28.77;;;;;;;;;;143759;569;45020;-59
2021/12/05 17:34:46;;;;;;;52.08;31.95;;;;;;;;;;143753;630;46020;-59
2021/12/05 17:37:19;;;;;;;46.10;29.15;;;;;;;;;;143755;578;45011;-58
2021/12/05 17:39:49;;;;;;;56.70;33.92;;;;;;;;;;143755;663;44890;-60
2021/12/05 17:42:21;;;;;;;55.53;33.35;;;;;;;;;;143756;656;45020;-58
2021/12/05 17:44:51;;;;;;;56.47;32.05;;;;;;;;;;143755;659;46021;-59
2021/12/05 17:47:19;;;;;;;54.03;29.85;;;;;;;;;;143755;661;45918;-60
2021/12/05 17:49:48;;;;;;;79.43;33.67;;;;;;;;;;143754;618;45020;-58
2021/12/05 17:52:16;;;;;;;48.72;30.17;;;;;;;;;;143757;623;45020;-60
2021/12/05 17:54:54;;;;;;;70.37;36.15;;;;;;;;;;143754;569;46040;-59
2021/12/05 17:57:37;;;;;;;56.35;32.78;;;;;;;;;;143755;620;45010;-60
2021/12/05 18:00:35;;;;;;;61.42;36.10;;;;;;;;;;143755;577;44021;-60
2021/12/05 18:03:06;;;;;;;54.30;32.20;;;;;;;;;;143757;586;45020;-59
2021/12/05 18:05:42;;;;;;;51.63;29.75;;;;;;;;;;143727;576;47020;-60
2021/12/05 18:08:17;;;;;;;49.35;29.70;;;;;;;;;;143726;591;46010;-60
2021/12/05 18:10:49;;;;;;;54.65;29.77;;;;;;;;;;143726;665;45020;-60
2021/12/05 18:13:21;;;;;;;53.85;32.45;;;;;;;;;;143728;618;46020;-58
2021/12/05 18:15:56;;;;;;;43.65;28.77;;;;;;;;;;143724;603;47021;-58
2021/12/05 18:18:26;;;;;;;49.28;30.42;;;;;;;;;;143726;627;47010;-58
2021/12/05 18:20:53;;;;;;;50.95;30.50;;;;;;;;;;143729;589;45021;-60
2021/12/05 18:23:21;;;;;;;49.72;31.52;;;;;;;;;;143730;587;46021;-59
2021/12/05 18:25:49;;;;;;;59.08;32.03;;;;;;;;;;143724;575;47022;-60
2021/12/05 18:28:17;;;;;;;46.25;29.50;;;;;;;;;;143727;590;46011;-60
2021/12/05 18:30:45;;;;;;;58.35;32.97;;;;;;;;;;143729;594;45021;-60
2021/12/05 18:33:14;;;;;;;49.33;30.77;;;;;;;;;;143729;574;46020;-60
2021/12/05 18:35:41;;;;;;;47.67;28.05;;;;;;;;;;143723;566;48021;-59
2021/12/05 18:38:11;;;;;;;48.70;29.48;;;;;;;;;;143724;587;47010;-60
2021/12/05 18:40:40;;;;;;;48.63;27.98;;;;;;;;;;143726;645;45020;-60
2021/12/05 18:43:07;;;;;;;39.88;22.75;;;;;;;;;;143729;587;46020;-58
2021/12/05 18:45:39;;;;;;;39.35;22.67;;;;;;;;;;143724;614;47023;-59
2021/12/05 18:48:06;;;;;;;37.28;23.02;;;;;;;;;;143725;569;47010;-59
2021/12/05 18:50:34;;;;;;;41.08;26.02;;;;;;;;;;143728;614;45020;-58
2021/12/05 18:53:01;;;;;;;36.92;23.50;;;;;;;;;;143729;574;46021;-58
2021/12/05 18:55:32;;;;;;;38.33;22.35;;;;;;;;;;143724;641;47032;-57
2021/12/05 18:58:02;;;;;;;37.42;21.92;;;;;;;;;;143726;614;47011;-58
2021/12/05 19:00:38;;;;;;;30.17;19.42;;;;;;;;;;143729;617;45021;-59
2021/12/05 19:06:05;;;;;;;35.90;22.03;;;;;;;;;;143725;616;47022;-59
2021/12/05 19:08:42;;;;;;;32.08;19.67;;;;;;;;;;143728;585;47010;-59
2021/12/05 19:13:54;;;;;;;35.17;23.70;;;;;;;;;;143726;569;47021;-60
2021/12/05 19:16:21;;;;;;;35.13;22.17;;;;;;;;;;143725;637;47023;-60
2021/12/05 19:18:48;;;;;;;34.38;19.58;;;;;;;;;;143724;569;47010;-61
2021/12/05 19:21:15;;;;;;;26.60;16.87;;;;;;;;;;143726;612;45021;-60
2021/12/05 19:23:42;;;;;;;35.42;20.33;;;;;;;;;;143730;564;46012;-59
2021/12/05 19:26:11;;;;;;;32.00;19.75;;;;;;;;;;143721;609;47020;-61
2021/12/05 19:28:37;;;;;;;28.17;18.00;;;;;;;;;;143724;564;46918;-61
2021/12/05 19:31:04;;;;;;;28.67;17.77;;;;;;;;;;143727;573;47010;-59
2021/12/05 19:33:31;;;;;;;25.75;16.45;;;;;;;;;;143728;638;46020;-61
2021/12/05 19:36:00;;;;;;;33.97;19.25;;;;;;;;;;143724;605;47022;-60
2021/12/05 19:38:27;;;;;;;27.37;16.67;;;;;;;;;;143725;672;47010;-60
2021/12/05 19:40:57;;;;;;;30.00;17.45;;;;;;;;;;143727;569;46020;-61
2021/12/05 19:43:27;;;;;;;20.73;13.82;;;;;;;;;;143729;588;47013;-61
2021/12/05 19:45:56;;;;;;;23.60;14.80;;;;;;;;;;143726;569;47020;-61
2021/12/05 19:48:23;;;;;;;26.77;14.18;;;;;;;;;;143725;594;47010;-60
2021/12/05 19:50:51;;;;;;;22.73;13.02;;;;;;;;;;143730;625;45021;-59
2021/12/05 19:53:19;;;;;;;24.52;14.45;;;;;;;;;;143729;597;46021;-60
2021/12/05 19:55:47;;;;;;;23.73;13.10;;;;;;;;;;143725;594;47022;-60
2021/12/05 19:58:14;;;;;;;22.58;13.27;;;;;;;;;;143724;647;47010;-60
2021/12/05 20:00:43;;;;;;;15.00;9.52;;;;;;;;;;143729;639;45021;-60
2021/12/05 20:03:10;;;;;;;18.52;11.10;;;;;;;;;;143730;666;46012;-60